Terminal Aerodrome Forecast
Issued by NWS Pocatello, ID

Home | Current Version | Previous Version | Text Only | Print | Product List | Glossary On
Versions: 1 2 3 4 5 6 7 8 9 10 11 12 13 14 15 16 17 18 19 20 21 22 23 24 25 26
254
FTUS45 KPIH 101723
TAFPIH
TAF
KPIH 101723Z 1018/1118 21013KT P6SM -RA SCT015 OVC025
     FM102200 23015KT P6SM VCSH BKN015
     FM110700 23016KT P6SM OVC008
     FM111700 23014KT P6SM OVC015=

USA.gov is the U.S. government's official web portal to all federal, state and local government web resources and services.